sensor_id;sensor_type;location;lat;lon;timestamp;P1;durP1;ratioP1;P2;durP2;ratioP2
7142;SDS011;3613;48.902;9.204;2022-09-23T00:02:22;11.17;;;8.57;;
7142;SDS011;3613;48.902;9.204;2022-09-23T00:04:47;12.20;;;8.97;;
7142;SDS011;3613;48.902;9.204;2022-09-23T00:07:15;12.50;;;9.47;;
7142;SDS011;3613;48.902;9.204;2022-09-23T00:09:41;10.23;;;8.30;;
7142;SDS011;3613;48.902;9.204;2022-09-23T00:12:07;11.27;;;8.07;;
7142;SDS011;3613;48.902;9.204;2022-09-23T00:14:35;10.67;;;8.90;;
7142;SDS011;3613;48.902;9.204;2022-09-23T00:17:01;13.47;;;8.70;;
7142;SDS011;3613;48.902;9.204;2022-09-23T00:19:27;15.40;;;9.23;;
7142;SDS011;3613;48.902;9.204;2022-09-23T00:21:53;11.27;;;9.40;;
7142;SDS011;3613;48.902;9.204;2022-09-23T00:24:20;13.57;;;8.80;;
7142;SDS011;3613;48.902;9.204;2022-09-23T00:26:46;11.60;;;8.40;;
7142;SDS011;3613;48.902;9.204;2022-09-23T00:29:12;12.40;;;9.13;;
7142;SDS011;3613;48.902;9.204;2022-09-23T00:31:37;12.57;;;8.57;;
7142;SDS011;3613;48.902;9.204;2022-09-23T00:34:03;12.37;;;9.30;;
7142;SDS011;3613;48.902;9.204;2022-09-23T00:36:31;11.17;;;8.70;;
7142;SDS011;3613;48.902;9.204;2022-09-23T00:38:59;14.10;;;9.67;;
7142;SDS011;3613;48.902;9.204;2022-09-23T00:41:29;11.67;;;8.50;;
7142;SDS011;3613;48.902;9.204;2022-09-23T00:43:59;13.93;;;9.53;;
7142;SDS011;3613;48.902;9.204;2022-09-23T00:46:31;9.80;;;8.13;;
7142;SDS011;3613;48.902;9.204;2022-09-23T00:49:02;12.53;;;8.67;;
7142;SDS011;3613;48.902;9.204;2022-09-23T00:51:33;10.43;;;8.20;;
7142;SDS011;3613;48.902;9.204;2022-09-23T00:54:03;10.90;;;8.30;;
7142;SDS011;3613;48.902;9.204;2022-09-23T00:56:30;11.17;;;9.03;;
7142;SDS011;3613;48.902;9.204;2022-09-23T00:58:57;12.50;;;8.90;;
7142;SDS011;3613;48.902;9.204;2022-09-23T01:01:24;13.60;;;8.33;;
7142;SDS011;3613;48.902;9.204;2022-09-23T01:03:50;12.33;;;8.87;;
7142;SDS011;3613;48.902;9.204;2022-09-23T01:06:18;11.77;;;8.80;;
7142;SDS011;3613;48.902;9.204;2022-09-23T01:08:44;13.70;;;9.33;;
7142;SDS011;3613;48.902;9.204;2022-09-23T01:11:33;11.70;;;8.87;;
7142;SDS011;3613;48.902;9.204;2022-09-23T01:14:21;10.73;;;9.00;;
7142;SDS011;3613;48.902;9.204;2022-09-23T01:22:53;13.43;;;9.03;;
7142;SDS011;3613;48.902;9.204;2022-09-23T01:31:26;11.43;;;8.57;;
7142;SDS011;3613;48.902;9.204;2022-09-23T01:34:14;14.10;;;8.67;;
7142;SDS011;3613;48.902;9.204;2022-09-23T01:36:51;13.77;;;9.13;;
7142;SDS011;3613;48.902;9.204;2022-09-23T01:39:33;10.47;;;8.33;;
7142;SDS011;3613;48.902;9.204;2022-09-23T01:47:16;13.57;;;8.93;;
7142;SDS011;3613;48.902;9.204;2022-09-23T01:49:51;11.37;;;8.70;;
7142;SDS011;3613;48.902;9.204;2022-09-23T01:55:06;13.67;;;8.60;;
7142;SDS011;3613;48.902;9.204;2022-09-23T01:57:47;10.57;;;8.53;;
7142;SDS011;3613;48.902;9.204;2022-09-23T02:00:19;11.93;;;8.70;;
7142;SDS011;3613;48.902;9.204;2022-09-23T02:02:55;12.23;;;8.87;;
7142;SDS011;3613;48.902;9.204;2022-09-23T02:07:58;11.57;;;8.87;;
7142;SDS011;3613;48.902;9.204;2022-09-23T02:11:16;10.40;;;8.57;;
7142;SDS011;3613;48.902;9.204;2022-09-23T02:13:42;11.00;;;8.33;;
7142;SDS011;3613;48.902;9.204;2022-09-23T02:16:43;12.30;;;9.20;;
7142;SDS011;3613;48.902;9.204;2022-09-23T02:19:19;12.07;;;8.87;;
7142;SDS011;3613;48.902;9.204;2022-09-23T02:25:32;13.03;;;8.97;;
7142;SDS011;3613;48.902;9.204;2022-09-23T02:30:37;12.20;;;9.03;;
7142;SDS011;3613;48.902;9.204;2022-09-23T02:33:36;12.37;;;9.73;;
7142;SDS011;3613;48.902;9.204;2022-09-23T02:36:14;12.33;;;8.97;;
7142;SDS011;3613;48.902;9.204;2022-09-23T02:39:02;14.40;;;9.20;;
7142;SDS011;3613;48.902;9.204;2022-09-23T02:41:43;12.30;;;9.10;;
7142;SDS011;3613;48.902;9.204;2022-09-23T02:44:14;13.27;;;9.37;;
7142;SDS011;3613;48.902;9.204;2022-09-23T02:46:41;13.43;;;9.43;;
7142;SDS011;3613;48.902;9.204;2022-09-23T02:51:47;12.63;;;8.50;;
7142;SDS011;3613;48.902;9.204;2022-09-23T02:54:15;15.33;;;10.30;;
7142;SDS011;3613;48.902;9.204;2022-09-23T02:56:46;13.43;;;9.67;;
7142;SDS011;3613;48.902;9.204;2022-09-23T02:59:15;13.60;;;9.47;;
7142;SDS011;3613;48.902;9.204;2022-09-23T03:07:59;14.33;;;9.50;;
7142;SDS011;3613;48.902;9.204;2022-09-23T03:19:29;16.90;;;10.60;;
7142;SDS011;3613;48.902;9.204;2022-09-23T03:22:10;16.10;;;9.50;;
7142;SDS011;3613;48.902;9.204;2022-09-23T03:24:43;13.67;;;9.50;;
7142;SDS011;3613;48.902;9.204;2022-09-23T03:27:12;14.20;;;9.47;;
7142;SDS011;3613;48.902;9.204;2022-09-23T03:29:46;13.87;;;9.13;;
7142;SDS011;3613;48.902;9.204;2022-09-23T03:32:18;12.73;;;9.43;;
7142;SDS011;3613;48.902;9.204;2022-09-23T03:34:48;12.43;;;9.30;;
7142;SDS011;3613;48.902;9.204;2022-09-23T03:37:17;13.47;;;9.97;;
7142;SDS011;3613;48.902;9.204;2022-09-23T03:39:54;12.23;;;8.57;;
7142;SDS011;3613;48.902;9.204;2022-09-23T03:42:27;16.53;;;9.53;;
7142;SDS011;3613;48.902;9.204;2022-09-23T03:44:56;11.37;;;8.40;;
7142;SDS011;3613;48.902;9.204;2022-09-23T03:47:30;13.27;;;9.33;;
7142;SDS011;3613;48.902;9.204;2022-09-23T03:49:58;13.40;;;9.40;;
7142;SDS011;3613;48.902;9.204;2022-09-23T03:52:24;12.23;;;9.03;;
7142;SDS011;3613;48.902;9.204;2022-09-23T03:54:52;13.67;;;9.23;;
7142;SDS011;3613;48.902;9.204;2022-09-23T03:57:20;12.17;;;8.83;;
7142;SDS011;3613;48.902;9.204;2022-09-23T03:59:50;14.63;;;9.93;;
7142;SDS011;3613;48.902;9.204;2022-09-23T04:02:16;13.57;;;9.93;;
7142;SDS011;3613;48.902;9.204;2022-09-23T04:04:43;13.50;;;9.90;;
7142;SDS011;3613;48.902;9.204;2022-09-23T04:07:09;16.43;;;11.03;;
7142;SDS011;3613;48.902;9.204;2022-09-23T04:09:38;15.67;;;10.07;;
7142;SDS011;3613;48.902;9.204;2022-09-23T04:12:04;15.43;;;9.90;;
7142;SDS011;3613;48.902;9.204;2022-09-23T04:14:32;13.73;;;10.40;;
7142;SDS011;3613;48.902;9.204;2022-09-23T04:16:58;13.43;;;10.07;;
7142;SDS011;3613;48.902;9.204;2022-09-23T04:19:23;15.17;;;10.40;;
7142;SDS011;3613;48.902;9.204;2022-09-23T04:21:49;16.97;;;10.27;;
7142;SDS011;3613;48.902;9.204;2022-09-23T04:24:15;14.93;;;10.03;;
7142;SDS011;3613;48.902;9.204;2022-09-23T04:26:41;15.53;;;11.00;;
7142;SDS011;3613;48.902;9.204;2022-09-23T04:29:07;16.07;;;10.23;;
7142;SDS011;3613;48.902;9.204;2022-09-23T04:31:38;15.80;;;10.23;;
7142;SDS011;3613;48.902;9.204;2022-09-23T04:34:06;13.77;;;9.67;;
7142;SDS011;3613;48.902;9.204;2022-09-23T04:36:32;15.60;;;10.60;;
7142;SDS011;3613;48.902;9.204;2022-09-23T04:38:57;15.40;;;10.60;;
7142;SDS011;3613;48.902;9.204;2022-09-23T04:41:23;16.00;;;11.10;;
7142;SDS011;3613;48.902;9.204;2022-09-23T04:43:49;18.97;;;10.80;;
7142;SDS011;3613;48.902;9.204;2022-09-23T04:46:15;18.10;;;11.23;;
7142;SDS011;3613;48.902;9.204;2022-09-23T04:48:45;17.57;;;10.77;;
7142;SDS011;3613;48.902;9.204;2022-09-23T04:51:15;18.23;;;11.17;;
7142;SDS011;3613;48.902;9.204;2022-09-23T04:53:43;15.13;;;11.57;;
7142;SDS011;3613;48.902;9.204;2022-09-23T04:56:21;17.07;;;11.50;;
7142;SDS011;3613;48.902;9.204;2022-09-23T04:58:52;15.53;;;10.43;;
7142;SDS011;3613;48.902;9.204;2022-09-23T05:01:19;16.40;;;10.73;;
7142;SDS011;3613;48.902;9.204;2022-09-23T05:03:50;15.17;;;10.53;;
7142;SDS011;3613;48.902;9.204;2022-09-23T05:06:27;16.53;;;10.97;;
7142;SDS011;3613;48.902;9.204;2022-09-23T05:08:55;15.90;;;11.13;;
7142;SDS011;3613;48.902;9.204;2022-09-23T05:11:22;15.93;;;10.83;;
7142;SDS011;3613;48.902;9.204;2022-09-23T05:13:49;17.43;;;11.30;;
7142;SDS011;3613;48.902;9.204;2022-09-23T05:16:19;16.33;;;10.60;;
7142;SDS011;3613;48.902;9.204;2022-09-23T05:18:47;17.60;;;10.80;;
7142;SDS011;3613;48.902;9.204;2022-09-23T05:21:14;15.40;;;11.07;;
7142;SDS011;3613;48.902;9.204;2022-09-23T05:23:46;18.90;;;12.10;;
7142;SDS011;3613;48.902;9.204;2022-09-23T05:26:18;15.27;;;10.97;;
7142;SDS011;3613;48.902;9.204;2022-09-23T05:28:43;17.53;;;11.10;;
7142;SDS011;3613;48.902;9.204;2022-09-23T05:31:10;16.60;;;11.27;;
7142;SDS011;3613;48.902;9.204;2022-09-23T05:33:39;23.13;;;12.10;;
7142;SDS011;3613;48.902;9.204;2022-09-23T05:36:07;20.90;;;12.47;;
7142;SDS011;3613;48.902;9.204;2022-09-23T05:38:33;16.93;;;11.83;;
7142;SDS011;3613;48.902;9.204;2022-09-23T05:41:01;18.10;;;11.47;;
7142;SDS011;3613;48.902;9.204;2022-09-23T05:43:29;16.03;;;10.87;;
7142;SDS011;3613;48.902;9.204;2022-09-23T05:46:02;13.90;;;9.80;;
7142;SDS011;3613;48.902;9.204;2022-09-23T05:48:32;18.17;;;10.30;;
7142;SDS011;3613;48.902;9.204;2022-09-23T05:50:59;14.57;;;9.00;;
7142;SDS011;3613;48.902;9.204;2022-09-23T05:53:26;13.67;;;10.07;;
7142;SDS011;3613;48.902;9.204;2022-09-23T05:55:53;15.93;;;9.87;;
7142;SDS011;3613;48.902;9.204;2022-09-23T05:58:19;12.10;;;9.63;;
7142;SDS011;3613;48.902;9.204;2022-09-23T06:00:46;14.30;;;9.23;;
7142;SDS011;3613;48.902;9.204;2022-09-23T06:03:13;15.30;;;8.63;;
7142;SDS011;3613;48.902;9.204;2022-09-23T06:05:40;15.87;;;7.30;;
7142;SDS011;3613;48.902;9.204;2022-09-23T06:08:07;9.90;;;7.20;;
7142;SDS011;3613;48.902;9.204;2022-09-23T06:10:35;8.10;;;5.60;;
7142;SDS011;3613;48.902;9.204;2022-09-23T06:13:06;10.10;;;5.53;;
7142;SDS011;3613;48.902;9.204;2022-09-23T06:15:32;8.43;;;6.17;;
7142;SDS011;3613;48.902;9.204;2022-09-23T06:18:00;9.13;;;5.43;;
7142;SDS011;3613;48.902;9.204;2022-09-23T06:20:29;9.67;;;5.90;;
7142;SDS011;3613;48.902;9.204;2022-09-23T06:23:04;10.67;;;5.00;;
7142;SDS011;3613;48.902;9.204;2022-09-23T06:25:34;8.57;;;5.47;;
7142;SDS011;3613;48.902;9.204;2022-09-23T06:28:02;9.03;;;6.63;;
7142;SDS011;3613;48.902;9.204;2022-09-23T06:30:28;10.40;;;5.50;;
7142;SDS011;3613;48.902;9.204;2022-09-23T06:32:55;7.23;;;5.40;;
7142;SDS011;3613;48.902;9.204;2022-09-23T06:35:22;9.20;;;4.67;;
7142;SDS011;3613;48.902;9.204;2022-09-23T06:37:53;8.63;;;5.00;;
7142;SDS011;3613;48.902;9.204;2022-09-23T06:40:19;7.10;;;4.87;;
7142;SDS011;3613;48.902;9.204;2022-09-23T06:42:55;6.13;;;4.87;;
7142;SDS011;3613;48.902;9.204;2022-09-23T06:45:22;7.17;;;4.90;;
7142;SDS011;3613;48.902;9.204;2022-09-23T06:47:54;15.40;;;5.53;;
7142;SDS011;3613;48.902;9.204;2022-09-23T06:50:22;6.03;;;5.00;;
7142;SDS011;3613;48.902;9.204;2022-09-23T06:52:53;8.90;;;4.77;;
7142;SDS011;3613;48.902;9.204;2022-09-23T06:55:20;5.53;;;4.83;;
7142;SDS011;3613;48.902;9.204;2022-09-23T06:57:52;6.53;;;5.13;;
7142;SDS011;3613;48.902;9.204;2022-09-23T07:00:24;6.20;;;4.73;;
7142;SDS011;3613;48.902;9.204;2022-09-23T07:02:52;9.80;;;5.43;;
7142;SDS011;3613;48.902;9.204;2022-09-23T07:05:18;6.73;;;4.27;;
7142;SDS011;3613;48.902;9.204;2022-09-23T07:07:46;7.07;;;4.87;;
7142;SDS011;3613;48.902;9.204;2022-09-23T07:10:14;7.00;;;4.57;;
7142;SDS011;3613;48.902;9.204;2022-09-23T07:12:42;6.07;;;4.97;;
7142;SDS011;3613;48.902;9.204;2022-09-23T07:15:08;5.93;;;4.60;;
7142;SDS011;3613;48.902;9.204;2022-09-23T07:17:34;7.03;;;4.53;;
7142;SDS011;3613;48.902;9.204;2022-09-23T07:20:00;11.90;;;7.97;;
7142;SDS011;3613;48.902;9.204;2022-09-23T07:22:26;4.73;;;4.33;;
7142;SDS011;3613;48.902;9.204;2022-09-23T07:24:51;5.13;;;4.60;;
7142;SDS011;3613;48.902;9.204;2022-09-23T07:27:24;7.53;;;4.60;;
7142;SDS011;3613;48.902;9.204;2022-09-23T07:29:50;9.20;;;4.57;;
7142;SDS011;3613;48.902;9.204;2022-09-23T07:32:19;8.00;;;4.27;;
7142;SDS011;3613;48.902;9.204;2022-09-23T07:34:46;5.60;;;4.30;;
7142;SDS011;3613;48.902;9.204;2022-09-23T07:37:15;5.70;;;4.10;;
7142;SDS011;3613;48.902;9.204;2022-09-23T07:39:42;5.10;;;4.60;;
7142;SDS011;3613;48.902;9.204;2022-09-23T07:42:08;5.93;;;4.40;;
7142;SDS011;3613;48.902;9.204;2022-09-23T07:44:37;5.07;;;3.80;;
7142;SDS011;3613;48.902;9.204;2022-09-23T07:47:03;6.07;;;4.10;;
7142;SDS011;3613;48.902;9.204;2022-09-23T07:49:29;5.80;;;4.13;;
7142;SDS011;3613;48.902;9.204;2022-09-23T07:51:57;5.43;;;4.30;;
7142;SDS011;3613;48.902;9.204;2022-09-23T07:54:26;6.77;;;3.97;;
7142;SDS011;3613;48.902;9.204;2022-09-23T07:56:54;7.03;;;4.50;;
7142;SDS011;3613;48.902;9.204;2022-09-23T07:59:22;5.67;;;4.33;;
7142;SDS011;3613;48.902;9.204;2022-09-23T08:01:51;7.07;;;4.70;;
7142;SDS011;3613;48.902;9.204;2022-09-23T08:04:22;6.57;;;4.20;;
7142;SDS011;3613;48.902;9.204;2022-09-23T08:06:51;7.17;;;4.30;;
7142;SDS011;3613;48.902;9.204;2022-09-23T08:09:25;6.53;;;3.90;;
7142;SDS011;3613;48.902;9.204;2022-09-23T08:11:55;6.27;;;4.77;;
7142;SDS011;3613;48.902;9.204;2022-09-23T08:14:24;5.37;;;4.20;;
7142;SDS011;3613;48.902;9.204;2022-09-23T08:16:50;4.50;;;3.80;;
7142;SDS011;3613;48.902;9.204;2022-09-23T08:19:16;5.97;;;4.00;;
7142;SDS011;3613;48.902;9.204;2022-09-23T08:21:42;5.13;;;3.83;;
7142;SDS011;3613;48.902;9.204;2022-09-23T08:24:12;4.77;;;4.10;;
7142;SDS011;3613;48.902;9.204;2022-09-23T08:26:42;6.07;;;3.73;;
7142;SDS011;3613;48.902;9.204;2022-09-23T08:29:13;4.87;;;3.60;;
7142;SDS011;3613;48.902;9.204;2022-09-23T08:31:40;4.97;;;3.50;;
7142;SDS011;3613;48.902;9.204;2022-09-23T08:34:08;4.80;;;3.60;;
7142;SDS011;3613;48.902;9.204;2022-09-23T08:36:39;4.97;;;4.17;;
7142;SDS011;3613;48.902;9.204;2022-09-23T08:39:05;4.53;;;3.60;;
7142;SDS011;3613;48.902;9.204;2022-09-23T08:50:13;6.70;;;3.77;;
7142;SDS011;3613;48.902;9.204;2022-09-23T08:52:57;5.13;;;3.77;;
7142;SDS011;3613;48.902;9.204;2022-09-23T08:55:36;4.47;;;3.87;;
7142;SDS011;3613;48.902;9.204;2022-09-23T09:01:26;5.03;;;3.53;;
7142;SDS011;3613;48.902;9.204;2022-09-23T09:04:17;6.47;;;3.63;;
7142;SDS011;3613;48.902;9.204;2022-09-23T09:07:08;7.77;;;3.80;;
7142;SDS011;3613;48.902;9.204;2022-09-23T09:15:24;5.63;;;3.50;;
7142;SDS011;3613;48.902;9.204;2022-09-23T09:21:11;5.93;;;3.70;;
7142;SDS011;3613;48.902;9.204;2022-09-23T09:23:37;5.50;;;3.63;;
7142;SDS011;3613;48.902;9.204;2022-09-23T09:26:18;7.00;;;3.80;;
7142;SDS011;3613;48.902;9.204;2022-09-23T09:29:11;3.47;;;2.90;;
7142;SDS011;3613;48.902;9.204;2022-09-23T09:31:45;4.13;;;3.30;;
7142;SDS011;3613;48.902;9.204;2022-09-23T09:39:39;6.90;;;3.30;;
7142;SDS011;3613;48.902;9.204;2022-09-23T09:42:05;3.97;;;2.93;;
7142;SDS011;3613;48.902;9.204;2022-09-23T09:50:10;4.83;;;3.23;;
7142;SDS011;3613;48.902;9.204;2022-09-23T09:52:45;4.07;;;3.00;;
7142;SDS011;3613;48.902;9.204;2022-09-23T09:57:59;5.83;;;3.43;;
7142;SDS011;3613;48.902;9.204;2022-09-23T10:02:56;4.03;;;2.97;;
7142;SDS011;3613;48.902;9.204;2022-09-23T10:05:46;4.50;;;3.20;;
7142;SDS011;3613;48.902;9.204;2022-09-23T10:08:20;4.17;;;3.47;;
7142;SDS011;3613;48.902;9.204;2022-09-23T10:10:50;5.73;;;3.27;;
7142;SDS011;3613;48.902;9.204;2022-09-23T10:13:22;3.93;;;2.87;;
7142;SDS011;3613;48.902;9.204;2022-09-23T10:15:50;3.53;;;3.23;;
7142;SDS011;3613;48.902;9.204;2022-09-23T10:21:24;6.00;;;3.43;;
7142;SDS011;3613;48.902;9.204;2022-09-23T10:23:58;4.43;;;3.20;;
7142;SDS011;3613;48.902;9.204;2022-09-23T10:26:49;4.27;;;3.53;;
7142;SDS011;3613;48.902;9.204;2022-09-23T10:32:11;4.33;;;3.43;;
7142;SDS011;3613;48.902;9.204;2022-09-23T10:34:51;4.23;;;3.60;;
7142;SDS011;3613;48.902;9.204;2022-09-23T10:46:17;5.90;;;3.57;;
7142;SDS011;3613;48.902;9.204;2022-09-23T11:00:24;6.33;;;3.70;;
7142;SDS011;3613;48.902;9.204;2022-09-23T11:06:21;5.77;;;3.53;;
7142;SDS011;3613;48.902;9.204;2022-09-23T11:11:33;4.20;;;3.07;;
7142;SDS011;3613;48.902;9.204;2022-09-23T11:14:21;5.13;;;3.40;;
7142;SDS011;3613;48.902;9.204;2022-09-23T11:28:48;5.57;;;3.10;;
7142;SDS011;3613;48.902;9.204;2022-09-23T11:39:04;5.83;;;3.00;;
7142;SDS011;3613;48.902;9.204;2022-09-23T11:41:43;3.87;;;2.83;;
7142;SDS011;3613;48.902;9.204;2022-09-23T11:49:44;4.17;;;3.20;;
7142;SDS011;3613;48.902;9.204;2022-09-23T11:52:26;4.37;;;3.40;;
7142;SDS011;3613;48.902;9.204;2022-09-23T11:55:10;6.10;;;3.37;;
7142;SDS011;3613;48.902;9.204;2022-09-23T12:00:48;5.57;;;3.00;;
7142;SDS011;3613;48.902;9.204;2022-09-23T12:06:34;5.00;;;2.80;;
7142;SDS011;3613;48.902;9.204;2022-09-23T12:09:14;3.90;;;2.90;;
7142;SDS011;3613;48.902;9.204;2022-09-23T12:11:49;6.67;;;3.50;;
7142;SDS011;3613;48.902;9.204;2022-09-23T12:14:25;4.93;;;3.47;;
7142;SDS011;3613;48.902;9.204;2022-09-23T12:17:21;6.00;;;3.40;;
7142;SDS011;3613;48.902;9.204;2022-09-23T12:27:55;3.93;;;2.87;;
7142;SDS011;3613;48.902;9.204;2022-09-23T12:30:28;5.13;;;3.27;;
7142;SDS011;3613;48.902;9.204;2022-09-23T12:33:07;4.67;;;3.07;;
7142;SDS011;3613;48.902;9.204;2022-09-23T12:35:38;5.83;;;3.20;;
7142;SDS011;3613;48.902;9.204;2022-09-23T12:38:14;3.20;;;2.90;;
7142;SDS011;3613;48.902;9.204;2022-09-23T12:40:49;4.40;;;3.30;;
7142;SDS011;3613;48.902;9.204;2022-09-23T12:43:26;6.03;;;3.17;;
7142;SDS011;3613;48.902;9.204;2022-09-23T12:46:16;3.80;;;3.27;;
7142;SDS011;3613;48.902;9.204;2022-09-23T12:51:22;4.63;;;3.10;;
7142;SDS011;3613;48.902;9.204;2022-09-23T12:53:55;3.93;;;3.00;;
7142;SDS011;3613;48.902;9.204;2022-09-23T13:01:42;4.83;;;3.00;;
7142;SDS011;3613;48.902;9.204;2022-09-23T13:07:14;4.00;;;2.80;;
7142;SDS011;3613;48.902;9.204;2022-09-23T13:09:44;4.90;;;2.83;;
7142;SDS011;3613;48.902;9.204;2022-09-23T13:12:24;5.10;;;2.80;;
7142;SDS011;3613;48.902;9.204;2022-09-23T13:14:55;4.80;;;2.73;;
7142;SDS011;3613;48.902;9.204;2022-09-23T13:17:30;4.67;;;2.80;;
7142;SDS011;3613;48.902;9.204;2022-09-23T13:20:03;4.07;;;2.50;;
7142;SDS011;3613;48.902;9.204;2022-09-23T13:25:18;3.83;;;2.60;;
7142;SDS011;3613;48.902;9.204;2022-09-23T13:27:48;4.80;;;2.33;;
7142;SDS011;3613;48.902;9.204;2022-09-23T13:30:17;4.07;;;2.70;;
7142;SDS011;3613;48.902;9.204;2022-09-23T13:32:47;3.17;;;2.53;;
7142;SDS011;3613;48.902;9.204;2022-09-23T13:35:31;6.10;;;2.73;;
7142;SDS011;3613;48.902;9.204;2022-09-23T13:38:10;4.77;;;3.00;;
7142;SDS011;3613;48.902;9.204;2022-09-23T13:40:52;3.23;;;2.63;;
7142;SDS011;3613;48.902;9.204;2022-09-23T13:45:48;6.83;;;3.20;;
7142;SDS011;3613;48.902;9.204;2022-09-23T13:48:17;4.20;;;3.23;;
7142;SDS011;3613;48.902;9.204;2022-09-23T13:50:47;3.90;;;3.00;;
7142;SDS011;3613;48.902;9.204;2022-09-23T13:53:48;4.10;;;3.30;;
7142;SDS011;3613;48.902;9.204;2022-09-23T13:56:10;5.90;;;3.23;;
7142;SDS011;3613;48.902;9.204;2022-09-23T13:58:40;6.97;;;3.63;;
7142;SDS011;3613;48.902;9.204;2022-09-23T14:04:05;5.47;;;3.50;;
7142;SDS011;3613;48.902;9.204;2022-09-23T14:06:46;4.33;;;3.43;;
7142;SDS011;3613;48.902;9.204;2022-09-23T14:09:11;5.90;;;3.80;;
7142;SDS011;3613;48.902;9.204;2022-09-23T14:11:37;4.20;;;3.73;;
7142;SDS011;3613;48.902;9.204;2022-09-23T14:14:03;5.10;;;4.10;;
7142;SDS011;3613;48.902;9.204;2022-09-23T14:16:37;7.10;;;3.90;;
7142;SDS011;3613;48.902;9.204;2022-09-23T14:19:08;4.83;;;3.47;;
7142;SDS011;3613;48.902;9.204;2022-09-23T14:21:45;6.77;;;3.70;;
7142;SDS011;3613;48.902;9.204;2022-09-23T14:29:34;5.73;;;4.07;;
7142;SDS011;3613;48.902;9.204;2022-09-23T14:32:03;4.90;;;3.30;;
7142;SDS011;3613;48.902;9.204;2022-09-23T14:40:20;6.20;;;3.73;;
7142;SDS011;3613;48.902;9.204;2022-09-23T14:43:00;5.00;;;3.50;;
7142;SDS011;3613;48.902;9.204;2022-09-23T14:45:29;4.67;;;3.10;;
7142;SDS011;3613;48.902;9.204;2022-09-23T14:48:01;5.33;;;3.10;;
7142;SDS011;3613;48.902;9.204;2022-09-23T14:50:31;6.07;;;3.70;;
7142;SDS011;3613;48.902;9.204;2022-09-23T14:53:48;5.07;;;3.13;;
7142;SDS011;3613;48.902;9.204;2022-09-23T14:56:16;5.03;;;3.23;;
7142;SDS011;3613;48.902;9.204;2022-09-23T14:58:45;4.00;;;3.10;;
7142;SDS011;3613;48.902;9.204;2022-09-23T15:01:24;6.73;;;3.93;;
7142;SDS011;3613;48.902;9.204;2022-09-23T15:03:57;6.13;;;3.50;;
7142;SDS011;3613;48.902;9.204;2022-09-23T15:06:23;11.90;;;3.40;;
7142;SDS011;3613;48.902;9.204;2022-09-23T15:08:50;3.80;;;3.17;;
7142;SDS011;3613;48.902;9.204;2022-09-23T15:11:20;4.77;;;3.40;;
7142;SDS011;3613;48.902;9.204;2022-09-23T15:13:49;4.27;;;3.17;;
7142;SDS011;3613;48.902;9.204;2022-09-23T15:16:22;4.00;;;3.40;;
7142;SDS011;3613;48.902;9.204;2022-09-23T15:18:54;5.03;;;2.90;;
7142;SDS011;3613;48.902;9.204;2022-09-23T15:21:24;5.20;;;3.00;;
7142;SDS011;3613;48.902;9.204;2022-09-23T15:24:29;3.43;;;2.90;;
7142;SDS011;3613;48.902;9.204;2022-09-23T15:27:00;4.20;;;2.87;;
7142;SDS011;3613;48.902;9.204;2022-09-23T15:29:36;3.80;;;2.93;;
7142;SDS011;3613;48.902;9.204;2022-09-23T15:32:04;4.70;;;3.10;;
7142;SDS011;3613;48.902;9.204;2022-09-23T15:34:32;3.93;;;2.90;;
7142;SDS011;3613;48.902;9.204;2022-09-23T15:37:01;3.67;;;3.10;;
7142;SDS011;3613;48.902;9.204;2022-09-23T15:39:26;4.80;;;2.77;;
7142;SDS011;3613;48.902;9.204;2022-09-23T15:41:54;4.83;;;2.53;;
7142;SDS011;3613;48.902;9.204;2022-09-23T15:44:21;5.07;;;3.20;;
7142;SDS011;3613;48.902;9.204;2022-09-23T15:46:53;3.50;;;2.80;;
7142;SDS011;3613;48.902;9.204;2022-09-23T15:52:00;5.77;;;3.10;;
7142;SDS011;3613;48.902;9.204;2022-09-23T15:54:27;4.60;;;3.17;;
7142;SDS011;3613;48.902;9.204;2022-09-23T15:56:53;4.67;;;3.23;;
7142;SDS011;3613;48.902;9.204;2022-09-23T15:59:20;4.17;;;3.07;;
7142;SDS011;3613;48.902;9.204;2022-09-23T16:01:47;9.03;;;6.73;;
7142;SDS011;3613;48.902;9.204;2022-09-23T16:04:15;5.43;;;3.90;;
7142;SDS011;3613;48.902;9.204;2022-09-23T16:06:41;6.47;;;4.97;;
7142;SDS011;3613;48.902;9.204;2022-09-23T16:09:12;5.67;;;4.50;;
7142;SDS011;3613;48.902;9.204;2022-09-23T16:11:42;7.57;;;3.80;;
7142;SDS011;3613;48.902;9.204;2022-09-23T16:14:13;6.27;;;4.33;;
7142;SDS011;3613;48.902;9.204;2022-09-23T16:16:42;7.63;;;5.17;;
7142;SDS011;3613;48.902;9.204;2022-09-23T16:19:11;8.53;;;5.97;;
7142;SDS011;3613;48.902;9.204;2022-09-23T16:21:37;8.10;;;5.63;;
7142;SDS011;3613;48.902;9.204;2022-09-23T16:24:15;4.03;;;3.20;;
7142;SDS011;3613;48.902;9.204;2022-09-23T16:26:44;6.10;;;3.83;;
7142;SDS011;3613;48.902;9.204;2022-09-23T16:29:11;4.80;;;3.37;;
7142;SDS011;3613;48.902;9.204;2022-09-23T16:31:37;5.90;;;4.40;;
7142;SDS011;3613;48.902;9.204;2022-09-23T16:34:03;8.40;;;6.40;;
7142;SDS011;3613;48.902;9.204;2022-09-23T16:36:32;6.97;;;4.10;;
7142;SDS011;3613;48.902;9.204;2022-09-23T16:39:04;5.27;;;3.80;;
7142;SDS011;3613;48.902;9.204;2022-09-23T16:41:34;5.83;;;2.80;;
7142;SDS011;3613;48.902;9.204;2022-09-23T16:44:03;5.87;;;3.30;;
7142;SDS011;3613;48.902;9.204;2022-09-23T16:46:34;4.67;;;3.33;;
7142;SDS011;3613;48.902;9.204;2022-09-23T16:49:00;5.80;;;3.87;;
7142;SDS011;3613;48.902;9.204;2022-09-23T16:51:29;6.30;;;3.67;;
7142;SDS011;3613;48.902;9.204;2022-09-23T16:54:03;5.00;;;3.23;;
7142;SDS011;3613;48.902;9.204;2022-09-23T16:56:39;6.60;;;3.93;;
7142;SDS011;3613;48.902;9.204;2022-09-23T16:59:13;7.23;;;4.83;;
7142;SDS011;3613;48.902;9.204;2022-09-23T17:01:40;7.57;;;5.03;;
7142;SDS011;3613;48.902;9.204;2022-09-23T17:04:27;6.47;;;4.37;;
7142;SDS011;3613;48.902;9.204;2022-09-23T17:06:55;6.97;;;4.53;;
7142;SDS011;3613;48.902;9.204;2022-09-23T17:09:27;6.50;;;4.07;;
7142;SDS011;3613;48.902;9.204;2022-09-23T17:14:35;7.50;;;4.20;;
7142;SDS011;3613;48.902;9.204;2022-09-23T17:17:03;6.97;;;5.23;;
7142;SDS011;3613;48.902;9.204;2022-09-23T17:19:33;9.63;;;4.67;;
7142;SDS011;3613;48.902;9.204;2022-09-23T17:22:01;6.57;;;4.67;;
7142;SDS011;3613;48.902;9.204;2022-09-23T17:24:29;7.10;;;4.77;;
7142;SDS011;3613;48.902;9.204;2022-09-23T17:26:54;6.17;;;3.80;;
7142;SDS011;3613;48.902;9.204;2022-09-23T17:29:20;6.33;;;4.47;;
7142;SDS011;3613;48.902;9.204;2022-09-23T17:31:48;5.47;;;4.67;;
7142;SDS011;3613;48.902;9.204;2022-09-23T17:34:16;5.67;;;4.77;;
7142;SDS011;3613;48.902;9.204;2022-09-23T17:36:44;5.33;;;4.77;;
7142;SDS011;3613;48.902;9.204;2022-09-23T17:39:10;4.33;;;3.93;;
7142;SDS011;3613;48.902;9.204;2022-09-23T17:41:35;6.20;;;4.87;;
7142;SDS011;3613;48.902;9.204;2022-09-23T17:44:03;7.03;;;4.83;;
7142;SDS011;3613;48.902;9.204;2022-09-23T17:46:35;8.83;;;5.90;;
7142;SDS011;3613;48.902;9.204;2022-09-23T17:49:00;9.43;;;6.67;;
7142;SDS011;3613;48.902;9.204;2022-09-23T17:51:28;6.53;;;4.80;;
7142;SDS011;3613;48.902;9.204;2022-09-23T17:53:54;5.33;;;4.20;;
7142;SDS011;3613;48.902;9.204;2022-09-23T17:56:20;6.47;;;4.70;;
7142;SDS011;3613;48.902;9.204;2022-09-23T17:58:51;9.47;;;4.90;;
7142;SDS011;3613;48.902;9.204;2022-09-23T18:03:43;6.10;;;4.67;;
7142;SDS011;3613;48.902;9.204;2022-09-23T18:06:13;8.87;;;4.83;;
7142;SDS011;3613;48.902;9.204;2022-09-23T18:08:41;5.67;;;4.60;;
7142;SDS011;3613;48.902;9.204;2022-09-23T18:13:38;7.30;;;4.87;;
7142;SDS011;3613;48.902;9.204;2022-09-23T18:16:07;5.47;;;4.53;;
7142;SDS011;3613;48.902;9.204;2022-09-23T18:18:37;6.77;;;4.47;;
7142;SDS011;3613;48.902;9.204;2022-09-23T18:21:03;6.63;;;5.47;;
7142;SDS011;3613;48.902;9.204;2022-09-23T18:23:31;7.23;;;5.23;;
7142;SDS011;3613;48.902;9.204;2022-09-23T18:25:57;9.70;;;5.70;;
7142;SDS011;3613;48.902;9.204;2022-09-23T18:28:23;8.17;;;5.43;;
7142;SDS011;3613;48.902;9.204;2022-09-23T18:30:57;7.77;;;5.60;;
7142;SDS011;3613;48.902;9.204;2022-09-23T18:33:25;7.43;;;5.80;;
7142;SDS011;3613;48.902;9.204;2022-09-23T18:35:53;8.03;;;5.57;;
7142;SDS011;3613;48.902;9.204;2022-09-23T18:38:21;8.50;;;5.70;;
7142;SDS011;3613;48.902;9.204;2022-09-23T18:40:51;10.37;;;6.90;;
7142;SDS011;3613;48.902;9.204;2022-09-23T18:43:20;9.70;;;7.90;;
7142;SDS011;3613;48.902;9.204;2022-09-23T18:45:54;11.17;;;7.50;;
7142;SDS011;3613;48.902;9.204;2022-09-23T18:48:22;11.60;;;8.87;;